CW1792 Weather Reports


Display with metric or nautical units.
time (UTC)temp
F
wind
direction
speed
MPH
gust
MPH
rain 1hr
in
rain 24hr
in
rain mn
in
humidity
%
barometer
mb
20170526092226 54 170 3.0 12.0 0.00 0.00 0.00 83 1011.4
20170526091726 54 116 1.0 5.0 0.00 0.00 0.00 84 1011.4
20170526091226 54 113 1.0 5.0 0.00 0.00 0.00 84 1011.5
20170526090726 54 94 2.0 3.0 0.00 0.00 0.00 84 1011.4
20170526090226 54 115 2.0 5.0 0.00 0.00 0.00 85 1011.4
20170526085726 54 112 1.0 2.0 0.00 0.00 0.00 84 1011.4
20170526085226 54 113 1.0 3.0 0.00 0.00 0.00 84 1011.4
20170526084726 55 113 1.0 5.0 0.00 0.00 0.00 83 1011.4
20170526084225 55 114 2.0 5.0 0.00 0.00 0.00 84 1011.4
20170526083726 55 121 2.0 7.0 0.00 0.00 0.00 84 1011.4
20170526083226 55 104 2.0 6.0 0.00 0.00 0.00 83 1011.4
20170526082726 55 105 2.0 6.0 0.00 0.00 0.00 83 1011.4
20170526082225 55 120 2.0 6.0 0.00 0.00 0.00 84 1011.4
20170526081726 55 89 4.0 10.0 0.00 0.00 0.00 84 1011.4
20170526081226 55 106 2.0 6.0 0.00 0.00 0.00 84 1011.3
20170526080726 55 118 5.0 8.0 0.00 0.00 0.00 84 1011.3
20170526080226 55 108 4.0 7.0 0.00 0.00 0.00 83 1011.3
20170526075726 55 93 3.0 8.0 0.00 0.00 0.00 82 1011.2
20170526075226 55 123 3.0 7.0 0.00 0.00 0.00 82 1011.2
20170526074726 55 115 2.0 5.0 0.00 0.00 0.00 81 1011.2
20170526074226 55 124 1.0 6.0 0.00 0.00 0.00 80 1011.2
20170526073725 55 122 1.0 2.0 0.00 0.00 0.00 80 1011.2
20170526073226 56 173 1.0 6.0 0.00 0.00 0.00 81 1011.3
20170526072726 56 221 1.0 7.0 0.00 0.00 0.00 79 1011.2
20170526072226 56 182 2.0 6.0 0.00 0.00 0.00 79 1011.2
20170526071726 56 178 5.0 10.0 0.00 0.00 0.00 80 1011.2
20170526071226 56 105 2.0 8.0 0.00 0.00 0.00 79 1011.2
20170526070726 56 127 2.0 6.0 0.00 0.00 0.00 80 1011.2
20170526070226 56 132 2.0 9.0 0.00 0.00 0.00 80 1011.3
20170526065725 55 157 1.0 2.0 0.00 0.00 0.00 81 1011.3
20170526065225 55 201 2.0 5.0 0.00 0.00 0.00 81 1011.2
20170526064726 55 172 1.0 3.0 0.00 0.00 0.00 81 1011.1
20170526064226 55 172 2.0 3.0 0.00 0.00 0.00 82 1011.0
20170526063726 55 173 1.0 2.0 0.00 0.00 0.00 82 1010.9
20170526063226 55 175 1.0 5.0 0.00 0.00 0.00 81 1010.9
20170526062726 55 192 2.0 3.0 0.00 0.00 0.00 82 1010.9
20170526062226 54 166 1.0 3.0 0.00 0.00 0.00 82 1010.9
20170526061726 55 187 1.0 3.0 0.00 0.00 0.00 82 1010.8
20170526061226 55 92 1.0 3.0 0.00 0.00 0.00 81 1010.8
20170526060726 55 128 1.0 2.0 0.00 0.00 0.00 81 1010.8
20170526060226 56 130 1.0 5.0 0.00 0.00 0.00 79 1010.8
20170526055726 55 204 2.0 6.0 0.00 0.00 0.00 80 1010.9
20170526055226 55 160 2.0 6.0 0.00 0.00 0.00 82 1010.7
20170526054726 55 181 1.0 2.0 0.00 0.00 0.00 82 1010.7
20170526054225 55 182 1.0 2.0 0.00 0.00 0.00 82 1010.6
20170526053726 55 176 0.0 2.0 0.00 0.00 0.00 81 1010.6
20170526053226 55 168 1.0 2.0 0.00 0.00 0.00 81 1010.5
20170526052726 55 113 1.0 3.0 0.00 0.00 0.00 80 1010.6
20170526052226 55 198 2.0 3.0 0.00 0.00 0.00 80 1010.6
20170526051725 56 122 1.0 3.0 0.00 0.00 0.00 79 1010.4
20170526051226 55 186 2.0 7.0 0.00 0.00 0.00 80 1010.4
20170526050726 55 130 1.0 2.0 0.00 0.00 0.00 81 1010.3
20170526050226 55 188 1.0 5.0 0.00 0.00 0.00 82 1010.3
20170526045726 55 191 0.0 1.0 0.00 0.00 0.00 81 1010.2
20170526045226 55 191 1.0 2.0 0.00 0.00 0.00 79 1010.2
20170526044726 55 178 1.0 3.0 0.00 0.00 0.00 81 1010.1
20170526044225 55 154 1.0 2.0 0.00 0.00 0.00 80 1010.1
20170526043726 55 102 1.0 2.0 0.00 0.00 0.00 80 1010.0
20170526043225 56 106 0.0 2.0 0.00 0.00 0.00 79 1009.9
20170526042726 56 106 1.0 5.0 0.00 0.00 0.00 79 1009.9
20170526042226 56 199 1.0 5.0 0.00 0.00 0.00 78 1009.9
20170526041725 56 164 2.0 7.0 0.00 0.00 0.00 77 1009.8
20170526041225 56 173 3.0 8.0 0.00 0.00 0.00 78 1009.9
20170526040726 56 138 1.0 3.0 0.00 0.00 0.00 77 1009.8
20170526040226 56 126 1.0 2.0 0.00 0.00 0.00 79 1009.9
20170526035726 56 95 0.0 2.0 0.00 0.00 0.00 79 1009.8
20170526035226 56 95 1.0 2.0 0.00 0.00 0.00 77 1009.8
20170526034726 56 111 1.0 6.0 0.00 0.00 0.00 77 1009.8
20170526034226 57 181 2.0 6.0 0.00 0.00 0.00 78 1009.8
20170526033725 57 167 1.0 7.0 0.00 0.00 0.00 75 1009.7
20170526033226 57 155 1.0 7.0 0.00 0.00 0.00 77 1009.6
20170526032726 57 190 3.0 7.0 0.00 0.00 0.00 75 1009.5
20170526032226 57 162 1.0 6.0 0.00 0.00 0.00 77 1009.4
20170526031726 57 112 2.0 7.0 0.00 0.00 0.00 78 1009.4
20170526031226 57 189 3.0 8.0 0.00 0.00 0.00 75 1009.3
20170526030726 57 126 1.0 5.0 0.00 0.00 0.00 76 1009.3
20170526030226 58 167 2.0 6.0 0.00 0.00 0.00 75 1009.3
20170526025726 58 185 2.0 10.0 0.00 0.00 0.00 74 1009.4
20170526025226 58 153 2.0 10.0 0.00 0.00 0.00 74 1009.3
20170526024726 58 106 3.0 7.0 0.00 0.00 0.00 72 1009.3
20170526024226 59 154 2.0 6.0 0.00 0.00 0.00 71 1009.2
20170526023726 59 172 1.0 6.0 0.00 0.00 0.00 71 1009.2
20170526023226 59 140 3.0 10.0 0.00 0.00 0.00 72 1009.2
20170526022726 59 154 4.0 8.0 0.00 0.00 0.00 69 1009.2
20170526022226 60 177 1.0 5.0 0.00 0.00 0.00 70 1009.1
20170526021726 60 198 3.0 9.0 0.00 0.00 0.00 69 1009.1
20170526021226 61 92 2.0 3.0 0.00 0.00 0.00 69 1008.9
20170526020726 60 4 2.0 3.0 0.00 0.00 0.00 69 1008.8
20170526020225 60 107 3.0 7.0 0.00 0.00 0.00 70 1008.8
20170526015726 61 194 2.0 6.0 0.00 0.00 0.00 69 1008.8
20170526015225 61 213 2.0 6.0 0.00 0.00 0.00 67 1008.8
20170526014726 62 190 3.0 8.0 0.00 0.00 0.00 65 1008.8
20170526014226 62 207 3.0 8.0 0.00 0.00 0.00 66 1008.7
20170526013726 61 67 1.0 7.0 0.00 0.00 0.00 68 1008.6
20170526013225 62 157 1.0 8.0 0.00 0.00 0.00 67 1008.6
20170526012726 62 146 2.0 8.0 0.00 0.00 0.00 67 1008.6
20170526012226 62 110 3.0 10.0 0.00 0.00 0.00 66 1008.5
20170526011725 62 120 2.0 6.0 0.00 0.00 0.00 65 1008.5
20170526011225 62 173 3.0 8.0 0.00 0.00 0.00 65 1008.5
20170526010725 62 213 3.0 7.0 0.00 0.00 0.00 65 1008.5
20170526010225 62 156 2.0 10.0 0.00 0.00 0.00 64 1008.4
20170526005726 63 182 3.0 7.0 0.00 0.00 0.00 63 1008.4
20170526005226 63 270 2.0 6.0 0.00 0.00 0.00 63 1008.4
20170526004726 63 198 2.0 10.0 0.00 0.00 0.00 63 1008.4
20170526004225 63 182 2.0 9.0 0.00 0.00 0.00 63 1008.4
20170526003726 63 156 3.0 6.0 0.00 0.00 0.00 64 1008.4
20170526003226 64 152 2.0 5.0 0.00 0.00 0.00 62 1008.5
20170526002726 64 176 3.0 7.0 0.00 0.00 0.00 63 1008.6
20170526002226 63 123 3.0 7.0 0.00 0.00 0.00 62 1008.6
20170526001726 64 130 3.0 12.0 0.00 0.00 0.00 63 1008.5
20170526001226 63 265 2.0 7.0 0.00 0.00 0.00 64 1008.5
20170526000726 63 162 5.0 10.0 0.00 0.00 0.00 63 1008.7
20170526000226 64 156 5.0 14.0 0.00 0.00 0.00 62 1008.7
20170525235726 64 181 2.0 6.0 0.00 0.00 0.00 63 1008.7
20170525235226 65 153 6.0 12.0 0.00 0.00 0.00 61 1008.8
20170525234725 65 184 3.0 8.0 0.00 0.00 0.00 63 1008.7
20170525234225 65 199 5.0 12.0 0.00 0.00 0.00 62 1008.7
20170525233726 65 149 3.0 12.0 0.00 0.00 0.00 63 1008.8
20170525233226 65 183 5.0 13.0 0.00 0.00 0.00 62 1008.8
20170525232726 66 185 5.0 13.0 0.00 0.00 0.00 62 1008.8
20170525232226 65 208 9.0 16.0 0.00 0.00 0.00 62 1008.8
20170525231726 66 191 5.0 12.0 0.00 0.00 0.00 61 1008.7
20170525231225 66 182 6.0 13.0 0.00 0.00 0.00 60 1008.7
20170525230726 66 160 3.0 12.0 0.00 0.00 0.00 62 1008.8
20170525230226 67 161 3.0 12.0 0.00 0.00 0.00 60 1008.7
20170525225725 66 215 4.0 8.0 0.00 0.00 0.00 61 1008.8
20170525225225 66 214 3.0 8.0 0.00 0.00 0.00 60 1008.8
20170525224726 66 176 5.0 12.0 0.00 0.00 0.00 60 1008.8
20170525224226 67 175 6.0 13.0 0.00 0.00 0.00 57 1008.9
20170525223726 68 209 2.0 10.0 0.00 0.00 0.00 59 1008.8
20170525223226 67 126 2.0 12.0 0.00 0.00 0.00 58 1008.8
20170525222726 67 168 3.0 10.0 0.00 0.00 0.00 58 1008.8
20170525222225 67 144 5.0 12.0 0.00 0.00 0.00 59 1008.8
20170525221726 67 150 5.0 9.0 0.00 0.00 0.00 59 1008.8
20170525221226 66 180 3.0 10.0 0.00 0.00 0.00 60 1008.8
20170525220726 67 174 5.0 14.0 0.00 0.00 0.00 60 1009.0
20170525220225 67 135 3.0 7.0 0.00 0.00 0.00 61 1008.9
20170525215725 66 202 4.0 10.0 0.00 0.00 0.00 61 1009.0
20170525215225 67 158 3.0 12.0 0.00 0.00 0.00 61 1009.0
20170525214725 66 205 6.0 13.0 0.00 0.00 0.00 60 1009.0
20170525214226 67 185 4.0 13.0 0.00 0.00 0.00 59 1009.0
20170525213726 67 177 7.0 12.0 0.00 0.00 0.00 59 1008.9
20170525213226 67 124 3.0 14.0 0.00 0.00 0.00 60 1009.0
20170525212726 67 168 4.0 12.0 0.00 0.00 0.00 60 1009.0
20170525212226 66 132 4.0 13.0 0.00 0.00 0.00 61 1009.1
20170525211725 67 154 5.0 13.0 0.00 0.00 0.00 62 1009.1
20170525211225 66 152 5.0 13.0 0.00 0.00 0.00 62 1009.1
20170525210726 66 169 6.0 20.0 0.00 0.00 0.00 60 1009.2
20170525210225 66 139 6.0 12.0 0.00 0.00 0.00 60 1009.2
20170525205725 66 158 5.0 16.0 0.00 0.00 0.00 60 1009.1
20170525205226 67 142 4.0 12.0 0.00 0.00 0.00 59 1009.1
20170525204725 67 183 3.0 20.0 0.00 0.00 0.00 61 1009.1
20170525204226 66 148 6.0 13.0 0.00 0.00 0.00 64 1009.1
20170525203726 66 186 5.0 12.0 0.00 0.00 0.00 62 1009.2
20170525203226 67 186 7.0 16.0 0.00 0.00 0.00 60 1009.2
20170525202726 67 159 3.0 13.0 0.00 0.00 0.00 62 1009.2
20170525202226 67 168 3.0 13.0 0.00 0.00 0.00 61 1009.1
20170525201726 67 168 6.0 17.0 0.00 0.00 0.00 59 1009.1
20170525201226 67 174 5.0 13.0 0.00 0.00 0.00 61 1009.1
20170525200725 67 184 6.0 16.0 0.00 0.00 0.00 61 1008.9
20170525200226 66 138 7.0 13.0 0.00 0.00 0.00 59 1009.0
20170525195726 67 181 7.0 13.0 0.00 0.00 0.00 60 1008.9
20170525195226 67 216 4.0 12.0 0.00 0.00 0.00 63 1008.8
20170525194726 66 170 5.0 12.0 0.00 0.00 0.00 60 1008.8
20170525194225 67 151 4.0 14.0 0.00 0.00 0.00 61 1008.8
20170525193726 66 167 3.0 8.0 0.00 0.00 0.00 62 1008.8
20170525193225 66 158 5.0 12.0 0.00 0.00 0.00 60 1008.8
20170525192726 66 162 5.0 12.0 0.00 0.00 0.00 61 1008.8
20170525192225 66 164 5.0 13.0 0.00 0.00 0.00 63 1008.7
20170525191726 66 175 5.0 16.0 0.00 0.00 0.00 63 1008.7
20170525191225 65 130 6.0 20.0 0.00 0.00 0.00 62 1008.6
20170525190726 65 134 5.0 8.0 0.00 0.00 0.00 62 1008.7
20170525190226 65 160 3.0 12.0 0.00 0.00 0.00 64 1008.7
20170525185726 65 163 6.0 15.0 0.00 0.00 0.00 63 1008.7
20170525185225 65 167 3.0 17.0 0.00 0.00 0.00 62 1008.7
20170525184726 66 180 5.0 18.0 0.00 0.00 0.00 61 1008.7
20170525184226 65 171 4.0 12.0 0.00 0.00 0.00 63 1008.7
20170525183725 65 175 5.0 12.0 0.00 0.00 0.00 62 1008.7
20170525183226 65 155 6.0 16.0 0.00 0.00 0.00 60 1008.7
20170525182726 66 189 6.0 15.0 0.00 0.00 0.00 61 1008.7
20170525182226 65 182 4.0 13.0 0.00 0.00 0.00 63 1008.7
20170525181726 65 181 7.0 17.0 0.00 0.00 0.00 61 1008.8
20170525181225 65 179 4.0 7.0 0.00 0.00 0.00 62 1008.7
20170525180725 65 200 2.0 9.0 0.00 0.00 0.00 64 1008.6
20170525180226 65 178 3.0 8.0 0.00 0.00 0.00 62 1008.6
20170525175726 65 131 3.0 10.0 0.00 0.00 0.00 60 1008.5
20170525175226 65 215 4.0 8.0 0.00 0.00 0.00 61 1008.6
20170525174726 64 190 3.0 7.0 0.00 0.00 0.00 61 1008.5
20170525174225 64 204 4.0 12.0 0.00 0.00 0.00 62 1008.4
20170525173725 64 165 5.0 14.0 0.00 0.00 0.00 61 1008.4
20170525173226 64 173 4.0 10.0 0.00 0.00 0.00 64 1008.3
20170525172725 64 198 3.0 6.0 0.00 0.00 0.00 64 1008.4
20170525172226 63 173 4.0 12.0 0.00 0.00 0.00 63 1008.3
20170525171725 64 164 3.0 14.0 0.00 0.00 0.00 63 1008.3
20170525171226 64 197 3.0 8.0 0.00 0.00 0.00 64 1008.3
20170525170725 63 140 2.0 14.0 0.00 0.00 0.00 64 1008.3
20170525170226 64 186 3.0 16.0 0.00 0.00 0.00 64 1008.4
20170525165726 63 186 3.0 8.0 0.00 0.00 0.00 65 1008.3
20170525165226 63 122 3.0 12.0 0.00 0.00 0.00 64 1008.3
20170525164725 63 187 3.0 8.0 0.00 0.00 0.00 66 1008.2
20170525164226 62 160 3.0 12.0 0.00 0.00 0.00 67 1008.3
20170525163725 62 168 3.0 13.0 0.00 0.00 0.00 66 1008.2
20170525163225 62 151 5.0 10.0 0.00 0.00 0.00 66 1008.2
20170525162725 62 189 6.0 12.0 0.00 0.00 0.00 65 1008.3
20170525162225 62 160 4.0 12.0 0.00 0.00 0.00 66 1008.2
20170525161726 62 179 2.0 12.0 0.00 0.00 0.00 67 1008.2
20170525161225 62 184 2.0 7.0 0.00 0.00 0.00 67 1008.2
20170525160725 61 157 2.0 8.0 0.00 0.00 0.00 68 1008.2
20170525160225 61 187 3.0 10.0 0.00 0.00 0.00 67 1008.2
20170525155725 61 161 2.0 7.0 0.00 0.00 0.00 67 1008.1
20170525155226 61 161 2.0 3.0 0.00 0.00 0.00 68 1008.0
20170525154725 60 180 2.0 6.0 0.00 0.00 0.00 70 1008.0
20170525154226 60 185 5.0 10.0 0.00 0.00 0.00 70 1007.9
20170525153726 60 168 4.0 7.0 0.00 0.00 0.00 71 1008.0
20170525153225 59 56 1.0 5.0 0.00 0.00 0.00 73 1008.0
20170525152726 59 213 3.0 8.0 0.00 0.00 0.00 73 1008.0
20170525152226 60 207 3.0 10.0 0.00 0.00 0.00 71 1007.9
20170525151726 59 152 2.0 6.0 0.00 0.00 0.00 72 1007.9
20170525151226 59 149 3.0 6.0 0.00 0.00 0.00 72 1007.8
20170525150726 59 239 2.0 3.0 0.00 0.00 0.00 72 1007.8
20170525150225 59 155 2.0 3.0 0.00 0.00 0.00 72 1007.8
20170525145725 59 214 2.0 7.0 0.00 0.00 0.00 73 1007.7
20170525145226 58 294 3.0 8.0 0.00 0.00 0.00 73 1007.6
20170525144725 58 204 4.0 10.0 0.00 0.00 0.00 73 1007.6
20170525144225 58 186 5.0 9.0 0.00 0.00 0.00 73 1007.6
20170525143726 58 120 3.0 13.0 0.00 0.00 0.00 74 1007.6
20170525143225 58 196 3.0 12.0 0.00 0.00 0.00 75 1007.6
20170525142726 58 188 1.0 3.0 0.00 0.00 0.00 77 1007.5
20170525142225 57 132 1.0 6.0 0.00 0.00 0.00 76 1007.5
20170525141726 57 188 2.0 7.0 0.00 0.00 0.00 78 1007.4
20170525141226 57 180 5.0 12.0 0.00 0.00 0.00 78 1007.4
20170525140725 56 158 4.0 8.0 0.00 0.00 0.00 78 1007.3
20170525140225 56 118 2.0 5.0 0.00 0.00 0.00 79 1007.5
20170525135726 56 172 1.0 7.0 0.00 0.00 0.00 78 1007.5
20170525135226 56 235 3.0 12.0 0.00 0.00 0.00 79 1007.5
20170525134726 56 163 2.0 12.0 0.00 0.00 0.00 81 1007.4
20170525134225 56 96 2.0 7.0 0.00 0.00 0.00 80 1007.4
20170525133726 56 12 3.0 10.0 0.00 0.00 0.00 80 1007.2
20170525133226 55 125 2.0 10.0 0.00 0.00 0.00 81 1007.4
20170525132725 55 156 3.0 10.0 0.00 0.00 0.00 81 1007.2
20170525132225 55 166 4.0 13.0 0.00 0.00 0.00 81 1007.3
20170525131725 55 155 3.0 13.0 0.00 0.00 0.00 81 1007.2
20170525131225 55 160 2.0 12.0 0.00 0.00 0.00 80 1007.2
20170525130725 55 152 2.0 7.0 0.00 0.00 0.00 82 1007.1
20170525130226 55 107 1.0 3.0 0.00 0.00 0.00 81 1007.1
20170525125726 55 163 2.0 12.0 0.00 0.00 0.00 81 1007.1
20170525125225 55 146 3.0 6.0 0.00 0.00 0.00 81 1007.0
20170525124725 55 154 3.0 12.0 0.00 0.00 0.00 80 1007.0
20170525124225 55 169 3.0 7.0 0.00 0.00 0.00 81 1007.0
20170525123725 55 159 1.0 10.0 0.00 0.00 0.00 81 1006.9
20170525123226 55 115 1.0 3.0 0.00 0.00 0.00 82 1006.9
20170525122726 55 110 1.0 5.0 0.00 0.00 0.00 81 1006.9
20170525122226 55 158 4.0 8.0 0.00 0.00 0.00 81 1007.0
20170525121726 55 193 1.0 5.0 0.00 0.00 0.00 81 1007.0
20170525121225 55 186 2.0 9.0 0.00 0.00 0.00 80 1006.9
20170525120725 55 174 2.0 6.0 0.00 0.00 0.00 80 1006.8
20170525120225 55 156 3.0 8.0 0.00 0.00 0.00 80 1006.8
20170525115725 55 171 3.0 12.0 0.00 0.00 0.00 80 1006.7
20170525115226 55 163 5.0 8.0 0.00 0.00 0.00 79 1006.6
20170525114726 55 188 4.0 12.0 0.00 0.00 0.00 78 1006.6
20170525114225 55 181 4.0 8.0 0.00 0.00 0.00 78 1006.5
20170525113725 55 194 5.0 12.0 0.00 0.00 0.00 80 1006.6
20170525113226 54 151 2.0 6.0 0.00 0.00 0.00 82 1006.5
20170525112725 55 110 1.0 3.0 0.00 0.00 0.00 79 1006.4
20170525112226 55 177 1.0 6.0 0.00 0.00 0.00 79 1006.4
20170525111725 55 315 2.0 5.0 0.00 0.00 0.00 79 1006.1
20170525111225 55 182 3.0 7.0 0.00 0.00 0.00 79 1006.1
20170525110725 55 174 2.0 3.0 0.00 0.00 0.00 79 1006.0
20170525110226 54 154 3.0 12.0 0.00 0.00 0.00 81 1006.1
20170525105725 53 201 2.0 6.0 0.00 0.00 0.00 84 1006.0
20170525105225 54 93 1.0 2.0 0.00 0.00 0.00 83 1006.2
20170525104726 54 92 0.0 2.0 0.00 0.00 0.00 83 1006.1
20170525104226 54 92 2.0 3.0 0.00 0.00 0.00 82 1006.3
20170525103726 54 82 1.0 3.0 0.00 0.00 0.00 83 1006.3
20170525103226 54 210 0.0 3.0 0.00 0.00 0.00 82 1006.4
20170525102725 54 142 1.0 6.0 0.00 0.00 0.00 84 1006.4
20170525102226 54 124 1.0 2.0 0.00 0.00 0.00 83 1006.4
20170525101726 54 124 1.0 3.0 0.00 0.00 0.00 81 1006.4
20170525101226 55 178 2.0 7.0 0.00 0.00 0.00 81 1006.4
20170525100725 55 113 3.0 7.0 0.00 0.00 0.00 81 1006.4
20170525100225 55 113 2.0 5.0 0.00 0.00 0.00 81 1006.5
20170525095725 55 97 2.0 7.0 0.00 0.00 0.00 81 1006.6
20170525095226 54 165 3.0 7.0 0.00 0.00 0.00 80 1006.7
20170525094725 54 151 3.0 10.0 0.00 0.00 0.00 83 1006.7
20170525094225 53 113 1.0 2.0 0.00 0.00 0.00 84 1006.9
20170525093725 52 113 1.0 2.0 0.00 0.00 0.00 84 1006.9
20170525093226 53 113 1.0 1.0 0.00 0.00 0.00 84 1006.9
20170525092725 53 113 0.0 2.0 0.00 0.00 0.00 82 1006.8